Data for 09/23/2013

Time Sea-Level Adjusted Pressure Absolute Pressure Temperature Relative Humidity Dew Point   
(mb) (inHg) (mb) (inHg) (C) (F) (%) (C) (F)
00:05 1012 29.88 841 24.83 7.7 45.9 80 4.5 40.1
00:10 1012 29.88 841 24.83 7.7 45.9 80 4.6 40.2
00:15 1012 29.88 841 24.83 7.7 45.9 80 4.5 40.1
00:20 1012 29.88 841 24.83 7.9 46.1 79 4.4 39.9
00:25 1012 29.88 841 24.83 7.9 46.3 79 4.5 40
00:30 1012 29.88 841 24.83 7.9 46.2 80 4.6 40.3
00:35 1012 29.88 841 24.83 7.8 46.1 80 4.6 40.3
00:40 1012 29.88 841 24.83 7.8 46.1 80 4.7 40.4
00:45 1012 29.88 841 24.83 7.8 46 81 4.8 40.7
00:50 1012 29.88 841 24.83 7.7 45.9 82 4.9 40.8
00:55 1012 29.88 841 24.83 7.6 45.8 82 4.8 40.6
01:00 1012 29.88 841 24.83 7.6 45.6 80 4.4 39.9
01:05 1012 29.88 841 24.83 7.6 45.6 82 4.7 40.4
01:10 1012 29.88 841 24.83 7.6 45.7 82 4.7 40.4
01:15 1012 29.88 841 24.83 7.6 45.6 81 4.5 40.2
01:20 1012 29.88 841 24.83 7.4 45.3 85 5.1 41.2
01:25 1012 29.88 841 24.83 7.1 44.8 85 4.8 40.6
01:30 1012 29.88 841 24.83 7.2 45 83 4.5 40.1
01:35 1012 29.88 841 24.83 7.3 45.1 83 4.6 40.3
01:40 1012 29.88 841 24.83 7.2 45 85 4.9 40.8
01:45 1012 29.88 841 24.83 7.1 44.7 85 4.7 40.4
01:50 1012 29.88 841 24.83 7.1 44.7 85 4.7 40.4
01:55 1012 29.88 841 24.83 7 44.6 86 4.8 40.6
02:00 1012 29.88 841 24.83 6.9 44.5 87 4.9 40.8
02:05 1012 29.88 841 24.83 6.9 44.4 88 5 41
02:10 1012 29.88 841 24.83 6.8 44.3 87 4.8 40.6
02:15 1012 29.88 841 24.83 6.7 44.1 88 4.9 40.7
02:20 1012 29.88 841 24.83 6.7 44 88 4.8 40.7
02:25 1012 29.88 841 24.83 6.6 43.9 88 4.8 40.7
02:30 1012 29.88 841 24.83 6.6 43.9 88 4.8 40.6
02:35 1012 29.88 841 24.83 6.6 43.8 88 4.7 40.4
02:40 1012 29.88 841 24.83 6.6 43.8 87 4.5 40.2
02:45 1012 29.88 841 24.83 6.7 44.1 85 4.3 39.8
02:50 1012 29.88 841 24.83 6.8 44.3 85 4.5 40
02:55 1012 29.88 841 24.83 6.8 44.2 84 4.3 39.8
03:00 1012 29.88 842 24.86 6.8 44.3 84 4.2 39.6
03:05 1012 29.88 841 24.83 6.9 44.3 85 4.5 40
03:10 1012 29.88 841 24.83 6.8 44.2 85 4.4 39.9
03:15 1012 29.88 841 24.83 6.7 44 85 4.4 39.9
03:20 1012 29.88 842 24.86 6.6 43.8 85 4.3 39.7
03:25 1012 29.88 842 24.86 6.5 43.7 86 4.4 39.9
03:30 1012 29.88 842 24.86 6.3 43.3 88 4.4 39.8
03:35 1012 29.88 842 24.86 6.2 43.2 85 4 39.1
03:40 1012 29.88 842 24.86 6.5 43.7 86 4.3 39.7
03:45 1012 29.88 842 24.86 6.5 43.7 86 4.4 39.9
03:50 1012 29.88 842 24.86 6.5 43.6 87 4.4 39.9
03:55 1012 29.88 842 24.86 6.5 43.6 87 4.5 40
04:00 1012 29.88 842 24.86 6.5 43.6 87 4.5 40.1
04:05 1013 29.91 842 24.86 6.5 43.7 87 4.4 40
04:10 1013 29.91 842 24.86 6.6 43.8 86 4.4 40
04:15 1013 29.91 842 24.86 6.6 43.9 86 4.5 40.1
04:20 1013 29.91 842 24.86 6.6 44 85 4.3 39.8
04:25 1013 29.91 842 24.86 6.7 44.1 86 4.5 40.2
04:30 1013 29.91 842 24.86 6.6 43.9 86 4.5 40.2
04:35 1013 29.91 842 24.86 6.5 43.8 86 4.4 40
04:40 1013 29.91 842 24.86 6.5 43.7 87 4.5 40
04:45 1013 29.91 842 24.86 6.5 43.8 85 4.1 39.4
04:50 1013 29.91 842 24.86 6.7 44.1 83 4.1 39.4
04:55 1013 29.91 842 24.86 7 44.6 83 4.3 39.7
05:00 1013 29.91 842 24.86 7.1 44.8 83 4.4 40
05:05 1013 29.91 842 24.86 7.1 44.8 83 4.4 39.9
05:10 1013 29.91 842 24.86 7.3 45.1 81 4.3 39.8
05:15 1013 29.91 842 24.86 7.4 45.4 81 4.4 39.9
05:20 1013 29.91 842 24.86 7.3 45.2 84 4.9 40.7
05:25 1013 29.91 842 24.86 6.8 44.2 83 4.1 39.5
05:30 1013 29.91 842 24.86 6.8 44.2 85 4.4 40
05:35 1013 29.91 842 24.86 6.5 43.7 87 4.5 40.1
05:40 1013 29.91 842 24.86 6.2 43.2 87 4.3 39.7
05:45 1013 29.91 842 24.86 6.3 43.3 86 4.1 39.4
05:50 1013 29.91 842 24.86 6.5 43.6 86 4.2 39.6
05:55 1013 29.91 843 24.89 6.6 43.9 84 4.1 39.4
06:00 1013 29.91 843 24.89 7 44.6 82 4.1 39.3
06:05 1013 29.91 843 24.89 7.5 45.5 79 4.1 39.3
06:10 1013 29.91 843 24.89 7.9 46.1 76 3.9 39
06:15 1013 29.91 843 24.89 8 46.5 77 4.3 39.7
06:20 1014 29.94 843 24.89 8.1 46.5 77 4.2 39.6
06:25 1014 29.94 843 24.89 8 46.5 77 4.3 39.8
06:30 1014 29.94 843 24.89 8.1 46.7 74 3.8 38.9
06:35 1014 29.94 843 24.89 8.3 46.9 72 3.5 38.4
06:40 1014 29.94 843 24.89 8.6 47.4 72 3.8 38.8
06:45 1014 29.94 843 24.89 8.9 48.1 70 3.7 38.7
06:50 1014 29.94 843 24.89 9.2 48.5 71 4.2 39.6
06:55 1014 29.94 843 24.89 9.1 48.3 69 3.6 38.5
07:00 1014 29.94 843 24.89 8.8 47.9 69 3.4 38.1
07:05 1014 29.94 843 24.89 8.6 47.4 68 3.1 37.6
07:10 1014 29.94 843 24.89 8.7 47.6 68 3.2 37.8
07:15 1014 29.94 843 24.89 8.9 47.9 67 3.1 37.5
07:20 1014 29.94 843 24.89 9.7 49.5 63 3 37.3
07:25 1014 29.94 843 24.89 10.3 50.5 62 3.4 38.1
07:30 1014 29.94 843 24.89 9.9 49.7 65 3.6 38.5
07:35 1014 29.94 843 24.89 9.4 49 67 3.7 38.7
07:40 1014 29.94 843 24.89 9.3 48.7 69 4 39.2
07:45 1014 29.94 844 24.92 10.2 50.4 66 4.2 39.5
07:50 1014 29.94 844 24.92 11.1 52 59 3.4 38.1
07:55 1014 29.94 844 24.92 11.8 53.2 57 3.5 38.3
08:00 1015 29.97 844 24.92 11.8 53.2 57 3.5 38.4
08:05 1015 29.97 844 24.92 11.5 52.7 58 3.7 38.7
08:10 1015 29.97 844 24.92 11.8 53.2 58 3.8 38.9
08:15 1015 29.97 844 24.92 12.1 53.9 56 3.8 38.8
08:20 1015 29.97 844 24.92 12 53.7 56 3.6 38.5
08:25 1015 29.97 844 24.92 12.2 54 55 3.4 38.2
08:30 1015 29.97 844 24.92 12.3 54.1 56 3.9 39
08:35 1015 29.97 844 24.92 12.5 54.5 57 4.2 39.6
08:40 1015 29.97 844 24.92 13 55.3 54 4 39.2
08:45 1015 29.97 844 24.92 12.8 55 56 4.4 39.9
08:50 1015 29.97 844 24.92 12.6 54.7 57 4.3 39.7
08:55 1015 29.97 844 24.92 13.1 55.5 56 4.5 40.1
09:00 1015 29.97 844 24.92 13.4 56.2 55 4.6 40.2
09:05 1015 29.97 844 24.92 13.8 56.8 54 4.6 40.4
09:10 1015 29.97 844 24.92 13.3 56 54 4.3 39.8
09:15 1015 29.97 844 24.92 13.7 56.6 46 2.4 36.4
09:20 1015 29.97 844 24.92 13.7 56.7 42 1.1 34
09:25 1015 29.97 844 24.92 14.3 57.7 40 0.9 33.7
09:30 1015 29.97 844 24.92 14.3 57.8 36 -0.4 31.2
09:35 1015 29.97 844 24.92 14.1 57.3 37 -0.4 31.4
09:40 1015 29.97 844 24.92 14.2 57.6 36 -0.5 31
09:45 1015 29.97 844 24.92 14.3 57.8 34 -1.5 29.4
09:50 1015 29.97 844 24.92 14.2 57.5 35 -1 30.2
09:55 1015 29.97 845 24.95 13.9 56.9 36 -1 30.2
10:00 1015 29.97 845 24.95 13.2 55.8 37 -1.1 30
10:05 1015 29.97 845 24.95 13.3 55.9 36 -1.5 29.2
10:10 1015 29.97 845 24.95 13.7 56.6 36 -1.3 29.7
10:15 1015 29.97 845 24.95 13.6 56.5 36 -1.1 30.1
10:20 1015 29.97 845 24.95 13.9 57 34 -1.7 29
10:25 1015 29.97 845 24.95 14.1 57.5 36 -0.5 31
10:30 1015 29.97 845 24.95 13.6 56.5 34 -1.9 28.6
10:35 1015 29.97 845 24.95 13.6 56.4 35 -1.4 29.6
10:40 1015 29.97 845 24.95 13.8 56.8 35 -1.5 29.3
10:45 1015 29.97 845 24.95 14.1 57.3 33 -1.9 28.6
10:50 1015 29.97 845 24.95 14.3 57.7 33 -1.8 28.8
10:55 1015 29.97 845 24.95 14.4 57.9 32 -2 28.3
11:00 1015 29.97 845 24.95 14.5 58 33 -1.4 29.4
11:05 1015 29.97 845 24.95 14.7 58.4 33 -1.3 29.7
11:10 1015 29.97 845 24.95 14.7 58.5 35 -0.6 31
11:15 1015 29.97 845 24.95 14.8 58.6 33 -1.4 29.4
11:20 1015 29.97 845 24.95 14.8 58.6 32 -1.5 29.3
11:25 1015 29.97 845 24.95 14.9 58.8 32 -1.7 28.9
11:30 1015 29.97 845 24.95 15.3 59.5 28 -3 26.6
11:35 1016 30 845 24.95 15.1 59.2 30 -2.3 27.9
11:40 1015 29.97 845 24.95 14.9 58.8 30 -2.4 27.7
11:45 1015 29.97 845 24.95 15 58.9 28 -3.2 26.3
11:50 1015 29.97 845 24.95 15.5 59.8 29 -2.5 27.6
11:55 1015 29.97 845 24.95 15.4 59.8 30 -2.1 28.3
12:00 1015 29.97 845 24.95 15.9 60.5 28 -2.7 27.2
12:05 1015 29.97 845 24.95 15.9 60.6 29 -2.1 28.2
12:10 1016 30 845 24.95 15.6 60 29 -2.4 27.6
12:15 1015 29.97 845 24.95 15.5 60 28 -2.6 27.4
12:20 1015 29.97 845 24.95 15.6 60 28 -2.7 27.2
12:25 1015 29.97 844 24.92 16 60.8 26 -3.2 26.2
12:30 1015 29.97 845 24.95 16.4 61.5 26 -3.3 26.1
12:35 1015 29.97 844 24.92 16.3 61.3 26 -3.3 26
12:40 1015 29.97 845 24.95 16.5 61.8 26 -2.8 26.9
12:45 1015 29.97 844 24.92 15.9 60.6 27 -2.8 27
12:50 1015 29.97 844 24.92 16.3 61.3 27 -2.9 26.8
12:55 1015 29.97 844 24.92 16.8 62.2 27 -2.3 27.9
13:00 1015 29.97 844 24.92 16.8 62.2 27 -2.2 28
13:05 1015 29.97 844 24.92 16.9 62.4 25 -3 26.7
13:10 1015 29.97 844 24.92 17.3 63.2 26 -2.4 27.7
13:15 1015 29.97 844 24.92 17.3 63.1 26 -2.4 27.7
13:20 1015 29.97 844 24.92 17.6 63.7 25 -2.5 27.5
13:25 1015 29.97 844 24.92 17.3 63.2 27 -1.6 29.1
13:30 1015 29.97 844 24.92 17.5 63.4 27 -1.8 28.7
13:35 1015 29.97 844 24.92 17.1 62.9 26 -2.2 28
13:40 1015 29.97 844 24.92 17.2 63 28 -1.6 29.2
13:45 1015 29.97 844 24.92 17.7 63.8 25 -2.4 27.7
13:50 1015 29.97 844 24.92 17.8 64 24 -2.8 27
13:55 1015 29.97 844 24.92 17.5 63.5 25 -2.6 27.4
14:00 1015 29.97 844 24.92 17 62.7 25 -2.9 26.7
14:05 1015 29.97 844 24.92 17.2 63 24 -3.1 26.4
14:10 1015 29.97 844 24.92 17.5 63.4 23 -4 24.8
14:15 1015 29.97 844 24.92 17.7 63.8 24 -3.2 26.3
14:20 1015 29.97 844 24.92 17.9 64.2 23 -3.2 26.2
14:25 1015 29.97 844 24.92 17.9 64.1 23 -3.6 25.6
14:30 1015 29.97 844 24.92 17.6 63.8 23 -3.6 25.6
14:35 1015 29.97 844 24.92 18 64.4 22 -3.8 25.1
14:40 1015 29.97 844 24.92 17.9 64.2 23 -3.5 25.6
14:45 1015 29.97 844 24.92 18.1 64.5 23 -3.4 25.8
14:50 1015 29.97 844 24.92 18 64.4 24 -2.7 27.1
14:55 1015 29.97 844 24.92 18.3 64.9 24 -2.4 27.6
15:00 1015 29.97 844 24.92 18.1 64.5 23 -3.3 26.1
15:05 1015 29.97 844 24.92 18.1 64.5 24 -2.9 26.9
15:10 1015 29.97 844 24.92 18 64.3 24 -3 26.6
15:15 1015 29.97 844 24.92 18 64.3 23 -3.2 26.3
15:20 1015 29.97 844 24.92 18.1 64.5 24 -2.8 27
15:25 1015 29.97 844 24.92 18 64.4 23 -3.1 26.5
15:30 1015 29.97 844 24.92 18 64.4 24 -2.8 27
15:35 1015 29.97 844 24.92 18 64.4 25 -2.3 27.8
15:40 1015 29.97 844 24.92 18 64.4 25 -2 28.3
15:45 1015 29.97 844 24.92 17.8 64 26 -2.1 28.2
15:50 1015 29.97 844 24.92 17.6 63.6 26 -2.2 28
15:55 1015 29.97 844 24.92 17.8 64 26 -2.1 28.3
16:00 1015 29.97 844 24.92 17.9 64.1 27 -1.5 29.3
16:05 1015 29.97 844 24.92 17.4 63.4 28 -1.1 30
16:10 1015 29.97 844 24.92 17.3 63.1 29 -0.9 30.3
16:15 1015 29.97 844 24.92 17.1 62.9 29 -1 30.2
16:20 1015 29.97 844 24.92 17.4 63.2 28 -1 30.1
16:25 1015 29.97 844 24.92 17 62.6 29 -1.1 30
16:30 1015 29.97 844 24.92 17 62.6 29 -1.1 30
16:35 1015 29.97 844 24.92 17.2 62.9 29 -1 30.1
16:40 1015 29.97 844 24.92 17.3 63.1 28 -1.1 30
16:45 1015 29.97 844 24.92 17.1 62.9 29 -1.1 30
16:50 1015 29.97 844 24.92 16.9 62.4 28 -1.6 29.2
16:55 1015 29.97 844 24.92 16.6 61.9 28 -1.7 28.9
17:00 1015 29.97 844 24.92 16.5 61.7 29 -1.4 29.4
17:05 1015 29.97 844 24.92 16.4 61.5 29 -1.7 29
17:10 1015 29.97 844 24.92 16.3 61.3 29 -1.8 28.7
17:15 1015 29.97 844 24.92 16.1 61 29 -1.7 29
17:20 1015 29.97 844 24.92 16.1 60.9 30 -1.5 29.2
17:25 1015 29.97 844 24.92 15.6 60.1 31 -1.3 29.7
17:30 1015 29.97 844 24.92 15.3 59.5 31 -1.7 28.9
17:35 1015 29.97 844 24.92 15.1 59.2 32 -1.5 29.3
17:40 1015 29.97 844 24.92 14.9 58.9 32 -1.3 29.6
17:45 1015 29.97 845 24.95 14.8 58.6 31 -2 28.4
17:50 1015 29.97 845 24.95 14.8 58.6 32 -1.7 28.9
17:55 1015 29.97 845 24.95 14.5 58 32 -1.8 28.7
18:00 1015 29.97 845 24.95 14.3 57.8 33 -1.8 28.8
18:05 1015 29.97 845 24.95 14.1 57.3 34 -1.6 29.2
18:10 1015 29.97 845 24.95 14 57.3 33 -2.1 28.3
18:15 1015 29.97 845 24.95 14.2 57.6 34 -1.2 29.9
18:20 1015 29.97 845 24.95 14.2 57.6 32 -2.1 28.2
18:25 1015 29.97 845 24.95 14.1 57.3 34 -1.6 29.2
18:30 1015 29.97 845 24.95 13.8 56.8 38 -0.1 31.8
18:35 1015 29.97 845 24.95 12.9 55.2 45 1.3 34.3
18:40 1015 29.97 845 24.95 12.3 54.1 45 0.7 33.3
18:45 1016 30 845 24.95 12.3 54.1 45 0.8 33.5
18:50 1015 29.97 845 24.95 12.3 54.1 45 0.8 33.4
18:55 1015 29.97 845 24.95 12.1 53.8 47 1.1 34
19:00 1016 30 845 24.95 11.9 53.4 48 1.2 34.2
19:05 1016 30 845 24.95 11.7 53.1 49 1.5 34.7
19:10 1016 30 845 24.95 11.6 52.8 49 1.4 34.6
19:15 1016 30 845 24.95 11.5 52.8 51 1.7 35
19:20 1016 30 845 24.95 11.3 52.3 51 1.6 35
19:25 1016 30 845 24.95 11.1 51.9 52 1.6 34.8
19:30 1016 30 845 24.95 11 51.8 52 1.5 34.7
19:35 1016 30 845 24.95 11 51.8 52 1.6 34.8
19:40 1016 30 845 24.95 10.9 51.6 52 1.5 34.7
19:45 1016 30 845 24.95 10.9 51.6 52 1.4 34.5
19:50 1016 30 845 24.95 10.9 51.5 53 1.6 34.9
19:55 1016 30 845 24.95 10.8 51.4 53 1.6 35
20:00 1016 30 845 24.95 10.7 51.3 53 1.5 34.6
20:05 1016 30 845 24.95 10.7 51.3 53 1.7 35
20:10 1016 30 845 24.95 10.4 50.7 55 1.8 35.3
20:15 1016 30 845 24.95 10 50.1 56 1.8 35.2
20:20 1016 30 845 24.95 9.9 49.9 57 1.8 35.3
20:25 1016 30 845 24.95 9.6 49.3 59 2.1 35.7
20:30 1016 30 845 24.95 9.3 48.8 59 1.7 35
20:35 1016 30 845 24.95 9.3 48.8 58 1.6 34.8
20:40 1016 30 845 24.95 9.3 48.7 58 1.5 34.8
20:45 1016 30 845 24.95 9.2 48.5 59 1.6 34.9
20:50 1016 30 845 24.95 9 48.2 60 1.6 34.9
20:55 1016 30 845 24.95 8.8 47.9 61 1.8 35.2
21:00 1016 30 845 24.95 8.6 47.6 60 1.5 34.6
21:05 1016 30 845 24.95 8.6 47.5 61 1.6 34.9
21:10 1016 30 846 24.98 8.5 47.3 61 1.5 34.7
21:15 1016 30 846 24.98 8.3 47 62 1.6 34.8
21:20 1016 30 846 24.98 8.2 46.7 62 1.5 34.6
21:25 1016 30 846 24.98 8 46.5 63 1.5 34.8
21:30 1016 30 846 24.98 7.9 46.2 63 1.4 34.5
21:35 1016 30 846 24.98 8 46.4 63 1.3 34.3
21:40 1016 30 846 24.98 8.2 46.7 60 1 33.8
21:45 1017 30.03 846 24.98 8.4 47.1 59 0.8 33.5
21:50 1017 30.03 846 24.98 8.7 47.6 59 1.2 34.2
21:55 1017 30.03 846 24.98 8.5 47.3 61 1.4 34.5
22:00 1017 30.03 846 24.98 8 46.4 64 1.6 34.8
22:05 1017 30.03 846 24.98 7.9 46.3 62 1.2 34.1
22:10 1017 30.03 846 24.98 8 46.4 61 1 33.8
22:15 1017 30.03 846 24.98 8.1 46.6 60 0.9 33.6
22:20 1017 30.03 846 24.98 8.3 46.9 61 1.1 34
22:25 1017 30.03 846 24.98 8.2 46.7 63 1.5 34.8
22:30 1017 30.03 846 24.98 8 46.3 61 1 33.8
22:35 1017 30.03 846 24.98 7.5 45.5 66 1.7 35
22:40 1017 30.03 846 24.98 7.1 44.9 65 1.1 34
22:45 1017 30.03 846 24.98 7.1 44.8 64 0.9 33.6
22:50 1017 30.03 846 24.98 7.7 45.8 61 0.5 33
22:55 1017 30.03 846 24.98 8.1 46.5 62 1.2 34.1
23:00 1017 30.03 846 24.98 7.6 45.7 62 0.8 33.4
23:05 1017 30.03 846 24.98 7.7 45.8 62 0.9 33.7
23:10 1017 30.03 846 24.98 7.6 45.7 60 0.5 32.8
23:15 1017 30.03 846 24.98 7.6 45.6 61 0.6 33.1
23:20 1017 30.03 846 24.98 7.5 45.5 59 -0.1 31.9
23:25 1017 30.03 846 24.98 7.7 45.9 61 0.7 33.2
23:30 1017 30.03 846 24.98 7.6 45.6 59 0 32
23:35 1017 30.03 846 24.98 7.8 46 58 0.2 32.3
23:40 1017 30.03 846 24.98 7.7 45.9 59 0.3 32.5
23:45 1017 30.03 846 24.98 7.6 45.7 60 0.3 32.6
23:50 1017 30.03 846 24.98 7.6 45.6 61 0.6 33.1
23:55 1017 30.03 846 24.98 7.3 45.1 63 0.7 33.2
24:00 1017 30.03 846 24.98 7 44.6 62 0.4 32.6